sensor_id;sensor_type;location;lat;lon;timestamp;pressure;altitude;pressure_sealevel;temperature;humidity
19553;BME280;9420;50.876;7.012;2023-02-28T00:01:27;102498.19;;;8.60;56.17
19553;BME280;9420;50.876;7.012;2023-02-28T00:03:56;102499.72;;;8.31;57.10
19553;BME280;9420;50.876;7.012;2023-02-28T00:06:23;102495.47;;;8.49;56.50
19553;BME280;9420;50.876;7.012;2023-02-28T00:08:51;102495.31;;;8.27;57.58
19553;BME280;9420;50.876;7.012;2023-02-28T00:11:18;102487.38;;;8.24;57.88
19553;BME280;9420;50.876;7.012;2023-02-28T00:13:46;102488.34;;;8.30;57.80
19553;BME280;9420;50.876;7.012;2023-02-28T00:16:17;102494.22;;;8.07;58.01
19553;BME280;9420;50.876;7.012;2023-02-28T00:18:45;102491.81;;;8.26;57.56
19553;BME280;9420;50.876;7.012;2023-02-28T00:21:16;102497.72;;;8.04;57.83
19553;BME280;9420;50.876;7.012;2023-02-28T00:23:44;102493.41;;;8.14;57.75
19553;BME280;9420;50.876;7.012;2023-02-28T00:26:11;102496.03;;;8.14;57.62
19553;BME280;9420;50.876;7.012;2023-02-28T00:28:38;102493.41;;;8.15;57.86
19553;BME280;9420;50.876;7.012;2023-02-28T00:31:06;102495.03;;;7.99;58.00
19553;BME280;9420;50.876;7.012;2023-02-28T00:33:33;102496.63;;;7.81;59.05
19553;BME280;9420;50.876;7.012;2023-02-28T00:36:07;102482.44;;;8.60;57.33
19553;BME280;9420;50.876;7.012;2023-02-28T00:38:40;102493.16;;;7.86;58.78
19553;BME280;9420;50.876;7.012;2023-02-28T00:41:11;102491.38;;;7.84;58.66
19553;BME280;9420;50.876;7.012;2023-02-28T00:43:41;102488.59;;;7.67;58.70
19553;BME280;9420;50.876;7.012;2023-02-28T00:46:12;102494.84;;;7.78;59.38
19553;BME280;9420;50.876;7.012;2023-02-28T00:48:44;102491.09;;;7.54;58.56
19553;BME280;9420;50.876;7.012;2023-02-28T00:51:14;102497.34;;;7.69;58.89
19553;BME280;9420;50.876;7.012;2023-02-28T00:53:50;102497.88;;;7.40;59.73
19553;BME280;9420;50.876;7.012;2023-02-28T00:56:23;102490.25;;;7.59;59.66
19553;BME280;9420;50.876;7.012;2023-02-28T00:58:57;102498.81;;;7.43;60.38
19553;BME280;9420;50.876;7.012;2023-02-28T01:01:36;102495.56;;;7.65;60.04
19553;BME280;9420;50.876;7.012;2023-02-28T01:04:14;102503.94;;;7.34;60.86
19553;BME280;9420;50.876;7.012;2023-02-28T01:06:42;102499.00;;;7.61;60.21
19553;BME280;9420;50.876;7.012;2023-02-28T01:09:13;102494.22;;;7.26;60.95
19553;BME280;9420;50.876;7.012;2023-02-28T01:11:43;102506.50;;;7.30;60.76
19553;BME280;9420;50.876;7.012;2023-02-28T01:14:16;102494.66;;;7.63;59.97
19553;BME280;9420;50.876;7.012;2023-02-28T01:16:43;102504.13;;;7.48;60.24
19553;BME280;9420;50.876;7.012;2023-02-28T01:19:10;102493.94;;;7.76;59.39
19553;BME280;9420;50.876;7.012;2023-02-28T01:21:38;102504.06;;;7.43;59.78
19553;BME280;9420;50.876;7.012;2023-02-28T01:24:06;102502.50;;;7.60;59.34
19553;BME280;9420;50.876;7.012;2023-02-28T01:26:35;102503.69;;;7.89;58.10
19553;BME280;9420;50.876;7.012;2023-02-28T01:29:02;102500.94;;;7.77;58.60
19553;BME280;9420;50.876;7.012;2023-02-28T01:31:29;102504.63;;;7.97;58.13
19553;BME280;9420;50.876;7.012;2023-02-28T01:33:56;102503.69;;;7.89;58.04
19553;BME280;9420;50.876;7.012;2023-02-28T01:36:24;102497.34;;;7.69;58.25
19553;BME280;9420;50.876;7.012;2023-02-28T01:38:52;102497.41;;;7.75;58.54
19553;BME280;9420;50.876;7.012;2023-02-28T01:41:22;102489.47;;;7.68;58.52
19553;BME280;9420;50.876;7.012;2023-02-28T01:44:01;102491.31;;;7.75;58.42
19553;BME280;9420;50.876;7.012;2023-02-28T01:46:30;102487.69;;;7.65;58.69
19553;BME280;9420;50.876;7.012;2023-02-28T01:49:05;102490.09;;;7.46;58.54
19553;BME280;9420;50.876;7.012;2023-02-28T01:51:40;102495.00;;;7.17;59.68
19553;BME280;9420;50.876;7.012;2023-02-28T01:54:16;102488.09;;;7.22;59.99
19553;BME280;9420;50.876;7.012;2023-02-28T01:56:47;102482.84;;;7.23;60.17
19553;BME280;9420;50.876;7.012;2023-02-28T01:59:27;102485.69;;;7.42;59.85
19553;BME280;9420;50.876;7.012;2023-02-28T02:01:56;102481.19;;;7.32;60.33
19553;BME280;9420;50.876;7.012;2023-02-28T02:04:27;102484.75;;;7.35;59.75
19553;BME280;9420;50.876;7.012;2023-02-28T02:06:59;102482.91;;;7.28;59.48
19553;BME280;9420;50.876;7.012;2023-02-28T02:09:26;102480.47;;;7.43;58.89
19553;BME280;9420;50.876;7.012;2023-02-28T02:11:56;102481.19;;;7.30;59.17
19553;BME280;9420;50.876;7.012;2023-02-28T02:14:57;102474.91;;;7.16;59.64
19553;BME280;9420;50.876;7.012;2023-02-28T02:17:35;102477.78;;;7.37;59.82
19553;BME280;9420;50.876;7.012;2023-02-28T02:24:03;102467.31;;;7.40;59.51
19553;BME280;9420;50.876;7.012;2023-02-28T02:26:58;102466.31;;;7.26;60.07
19553;BME280;9420;50.876;7.012;2023-02-28T02:30:20;102465.47;;;7.30;60.53
19553;BME280;9420;50.876;7.012;2023-02-28T02:33:21;102466.28;;;7.25;60.77
19553;BME280;9420;50.876;7.012;2023-02-28T02:36:00;102469.84;;;7.31;60.21
19553;BME280;9420;50.876;7.012;2023-02-28T02:38:35;102463.63;;;7.23;60.40
19553;BME280;9420;50.876;7.012;2023-02-28T02:41:11;102470.50;;;7.12;60.52
19553;BME280;9420;50.876;7.012;2023-02-28T02:43:48;102468.94;;;7.29;60.12
19553;BME280;9420;50.876;7.012;2023-02-28T02:46:21;102462.22;;;7.52;60.17
19553;BME280;9420;50.876;7.012;2023-02-28T02:48:54;102475.13;;;7.34;59.41
19553;BME280;9420;50.876;7.012;2023-02-28T02:51:26;102474.09;;;7.23;60.22
19553;BME280;9420;50.876;7.012;2023-02-28T02:53:58;102469.84;;;7.31;59.94
19553;BME280;9420;50.876;7.012;2023-02-28T02:56:31;102472.03;;;6.95;61.11
19553;BME280;9420;50.876;7.012;2023-02-28T02:59:04;102471.97;;;6.92;61.31
19553;BME280;9420;50.876;7.012;2023-02-28T03:01:37;102467.41;;;6.79;61.35
19553;BME280;9420;50.876;7.012;2023-02-28T03:04:12;102477.19;;;6.89;61.47
19553;BME280;9420;50.876;7.012;2023-02-28T03:06:43;102462.44;;;6.97;61.16
19553;BME280;9420;50.876;7.012;2023-02-28T03:09:10;102470.09;;;6.82;61.39
19553;BME280;9420;50.876;7.012;2023-02-28T03:11:38;102462.78;;;7.26;60.61
19553;BME280;9420;50.876;7.012;2023-02-28T03:14:56;102452.63;;;7.54;58.60
19553;BME280;9420;50.876;7.012;2023-02-28T03:17:59;102453.06;;;7.14;58.85
19553;BME280;9420;50.876;7.012;2023-02-28T03:20:40;102456.25;;;6.92;59.81
19553;BME280;9420;50.876;7.012;2023-02-28T03:23:19;102446.13;;;7.20;59.25
19553;BME280;9420;50.876;7.012;2023-02-28T03:25:57;102445.28;;;7.20;58.72
19553;BME280;9420;50.876;7.012;2023-02-28T03:28:35;102447.63;;;6.99;59.26
19553;BME280;9420;50.876;7.012;2023-02-28T03:31:15;102447.84;;;7.17;58.80
19553;BME280;9420;50.876;7.012;2023-02-28T03:33:50;102454.59;;;6.97;59.18
19553;BME280;9420;50.876;7.012;2023-02-28T03:36:25;102464.00;;;6.83;59.53
19553;BME280;9420;50.876;7.012;2023-02-28T03:38:59;102456.16;;;6.83;59.24
19553;BME280;9420;50.876;7.012;2023-02-28T03:41:36;102453.97;;;7.16;58.66
19553;BME280;9420;50.876;7.012;2023-02-28T03:44:10;102457.41;;;7.15;58.63
19553;BME280;9420;50.876;7.012;2023-02-28T03:46:46;102456.19;;;6.87;58.79
19553;BME280;9420;50.876;7.012;2023-02-28T03:49:20;102454.84;;;6.52;60.25
19553;BME280;9420;50.876;7.012;2023-02-28T03:51:50;102461.13;;;6.65;59.47
19553;BME280;9420;50.876;7.012;2023-02-28T03:54:26;102462.84;;;6.63;59.63
19553;BME280;9420;50.876;7.012;2023-02-28T03:57:03;102462.44;;;6.37;60.92
19553;BME280;9420;50.876;7.012;2023-02-28T03:59:39;102460.69;;;6.34;60.92
19553;BME280;9420;50.876;7.012;2023-02-28T04:02:08;102460.97;;;6.56;60.47
19553;BME280;9420;50.876;7.012;2023-02-28T04:04:36;102464.56;;;6.61;59.97
19553;BME280;9420;50.876;7.012;2023-02-28T04:07:08;102459.06;;;6.43;60.88
19553;BME280;9420;50.876;7.012;2023-02-28T04:09:37;102460.63;;;6.31;61.18
19553;BME280;9420;50.876;7.012;2023-02-28T04:12:05;102461.63;;;6.41;60.03
19553;BME280;9420;50.876;7.012;2023-02-28T04:14:32;102469.53;;;6.43;58.74
19553;BME280;9420;50.876;7.012;2023-02-28T04:16:59;102464.31;;;6.46;60.19
19553;BME280;9420;50.876;7.012;2023-02-28T04:19:26;102466.84;;;6.39;60.45
19553;BME280;9420;50.876;7.012;2023-02-28T04:21:54;102471.19;;;6.39;60.90
19553;BME280;9420;50.876;7.012;2023-02-28T04:24:25;102468.66;;;6.43;59.92
19553;BME280;9420;50.876;7.012;2023-02-28T04:26:56;102469.13;;;6.18;60.85
19553;BME280;9420;50.876;7.012;2023-02-28T04:29:26;102465.53;;;6.12;60.73
19553;BME280;9420;50.876;7.012;2023-02-28T04:31:54;102469.75;;;6.02;62.22
19553;BME280;9420;50.876;7.012;2023-02-28T04:34:24;102464.50;;;6.01;62.69
19553;BME280;9420;50.876;7.012;2023-02-28T04:36:52;102472.44;;;6.07;61.46
19553;BME280;9420;50.876;7.012;2023-02-28T04:39:20;102469.13;;;6.18;61.80
19553;BME280;9420;50.876;7.012;2023-02-28T04:41:48;102476.16;;;6.22;60.39
19553;BME280;9420;50.876;7.012;2023-02-28T04:44:17;102478.03;;;6.29;59.90
19553;BME280;9420;50.876;7.012;2023-02-28T04:46:44;102478.66;;;6.15;60.08
19553;BME280;9420;50.876;7.012;2023-02-28T04:49:12;102473.78;;;5.85;60.05
19553;BME280;9420;50.876;7.012;2023-02-28T04:51:40;102481.91;;;6.00;59.10
19553;BME280;9420;50.876;7.012;2023-02-28T04:54:08;102481.16;;;6.07;58.23
19553;BME280;9420;50.876;7.012;2023-02-28T04:56:35;102482.38;;;6.29;58.22
19553;BME280;9420;50.876;7.012;2023-02-28T04:59:02;102481.38;;;6.21;57.34
19553;BME280;9420;50.876;7.012;2023-02-28T05:01:33;102484.53;;;6.00;57.72
19553;BME280;9420;50.876;7.012;2023-02-28T05:04:03;102487.22;;;6.05;57.30
19553;BME280;9420;50.876;7.012;2023-02-28T05:06:33;102491.22;;;6.35;56.69
19553;BME280;9420;50.876;7.012;2023-02-28T05:09:00;102499.31;;;6.00;57.22
19553;BME280;9420;50.876;7.012;2023-02-28T05:11:31;102499.03;;;6.32;56.47
19553;BME280;9420;50.876;7.012;2023-02-28T05:14:01;102494.16;;;6.03;57.20
19553;BME280;9420;50.876;7.012;2023-02-28T05:16:28;102489.47;;;6.36;56.65
19553;BME280;9420;50.876;7.012;2023-02-28T05:18:57;102501.00;;;5.95;57.04
19553;BME280;9420;50.876;7.012;2023-02-28T05:21:28;102490.25;;;6.30;56.24
19553;BME280;9420;50.876;7.012;2023-02-28T05:23:58;102494.00;;;6.46;55.69
19553;BME280;9420;50.876;7.012;2023-02-28T05:26:27;102495.25;;;6.17;56.52
19553;BME280;9420;50.876;7.012;2023-02-28T05:28:54;102497.09;;;6.22;55.99
19553;BME280;9420;50.876;7.012;2023-02-28T05:31:22;102486.97;;;6.43;55.85
19553;BME280;9420;50.876;7.012;2023-02-28T05:33:50;102488.97;;;6.60;55.57
19553;BME280;9420;50.876;7.012;2023-02-28T05:36:18;102496.84;;;6.07;56.06
19553;BME280;9420;50.876;7.012;2023-02-28T05:38:47;102488.31;;;6.17;56.78
19553;BME280;9420;50.876;7.012;2023-02-28T05:41:14;102489.31;;;6.27;56.66
19553;BME280;9420;50.876;7.012;2023-02-28T05:43:42;102490.16;;;6.24;56.26
19553;BME280;9420;50.876;7.012;2023-02-28T05:46:11;102497.00;;;6.16;56.38
19553;BME280;9420;50.876;7.012;2023-02-28T05:48:42;102499.41;;;6.04;56.82
19553;BME280;9420;50.876;7.012;2023-02-28T05:51:09;102496.72;;;6.01;56.12
19553;BME280;9420;50.876;7.012;2023-02-28T05:53:38;102504.00;;;6.17;55.42
19553;BME280;9420;50.876;7.012;2023-02-28T05:56:05;102498.91;;;6.26;55.67
19553;BME280;9420;50.876;7.012;2023-02-28T05:58:32;102505.25;;;6.40;55.14
19553;BME280;9420;50.876;7.012;2023-02-28T06:01:19;102496.44;;;6.37;55.58
19553;BME280;9420;50.876;7.012;2023-02-28T06:03:46;102497.31;;;5.84;55.69
19553;BME280;9420;50.876;7.012;2023-02-28T06:06:13;102496.19;;;6.20;55.64
19553;BME280;9420;50.876;7.012;2023-02-28T06:08:42;102490.13;;;6.21;55.40
19553;BME280;9420;50.876;7.012;2023-02-28T06:11:10;102492.94;;;6.35;55.20
19553;BME280;9420;50.876;7.012;2023-02-28T06:13:37;102499.31;;;6.52;54.37
19553;BME280;9420;50.876;7.012;2023-02-28T06:16:05;102495.44;;;6.27;55.36
19553;BME280;9420;50.876;7.012;2023-02-28T06:18:32;102499.78;;;6.25;55.38
19553;BME280;9420;50.876;7.012;2023-02-28T06:20:59;102497.13;;;6.24;54.73
19553;BME280;9420;50.876;7.012;2023-02-28T06:23:26;102501.25;;;6.64;54.11
19553;BME280;9420;50.876;7.012;2023-02-28T06:25:54;102508.78;;;6.43;54.53
19553;BME280;9420;50.876;7.012;2023-02-28T06:28:24;102507.25;;;6.57;54.75
19553;BME280;9420;50.876;7.012;2023-02-28T06:30:52;102513.53;;;6.68;54.27
19553;BME280;9420;50.876;7.012;2023-02-28T06:33:19;102513.13;;;6.43;54.32
19553;BME280;9420;50.876;7.012;2023-02-28T06:35:47;102516.91;;;6.61;54.33
19553;BME280;9420;50.876;7.012;2023-02-28T06:38:16;102517.16;;;6.79;54.01
19553;BME280;9420;50.876;7.012;2023-02-28T06:40:44;102523.00;;;6.60;54.41
19553;BME280;9420;50.876;7.012;2023-02-28T06:43:12;102521.34;;;6.66;53.67
19553;BME280;9420;50.876;7.012;2023-02-28T06:45:43;102527.91;;;6.38;54.18
19553;BME280;9420;50.876;7.012;2023-02-28T06:48:10;102530.97;;;6.67;54.83
19553;BME280;9420;50.876;7.012;2023-02-28T06:50:37;102537.19;;;6.21;53.85
19553;BME280;9420;50.876;7.012;2023-02-28T06:53:04;102538.75;;;6.64;53.86
19553;BME280;9420;50.876;7.012;2023-02-28T06:55:32;102546.66;;;6.66;54.35
19553;BME280;9420;50.876;7.012;2023-02-28T06:57:59;102542.72;;;6.39;54.26
19553;BME280;9420;50.876;7.012;2023-02-28T07:00:27;102547.56;;;6.71;54.21
19553;BME280;9420;50.876;7.012;2023-02-28T07:02:54;102551.53;;;6.45;54.74
19553;BME280;9420;50.876;7.012;2023-02-28T07:05:21;102554.59;;;6.19;55.02
19553;BME280;9420;50.876;7.012;2023-02-28T07:07:49;102543.31;;;6.77;53.65
19553;BME280;9420;50.876;7.012;2023-02-28T07:10:18;102556.78;;;6.45;53.75
19553;BME280;9420;50.876;7.012;2023-02-28T07:12:46;102554.00;;;6.91;53.73
19553;BME280;9420;50.876;7.012;2023-02-28T07:15:13;102550.41;;;6.83;53.56
19553;BME280;9420;50.876;7.012;2023-02-28T07:17:41;102543.16;;;6.67;53.26
19553;BME280;9420;50.876;7.012;2023-02-28T07:20:10;102543.91;;;6.58;53.03
19553;BME280;9420;50.876;7.012;2023-02-28T07:22:37;102554.84;;;6.88;52.42
19553;BME280;9420;50.876;7.012;2023-02-28T07:25:06;102555.97;;;7.05;52.12
19553;BME280;9420;50.876;7.012;2023-02-28T07:27:33;102550.97;;;7.25;51.21
19553;BME280;9420;50.876;7.012;2023-02-28T07:30:01;102556.88;;;7.09;51.00
19553;BME280;9420;50.876;7.012;2023-02-28T07:32:29;102553.81;;;6.79;50.60
19553;BME280;9420;50.876;7.012;2023-02-28T07:34:58;102554.03;;;6.94;50.21
19553;BME280;9420;50.876;7.012;2023-02-28T07:37:25;102557.94;;;7.23;50.38
19553;BME280;9420;50.876;7.012;2023-02-28T07:39:52;102552.59;;;7.14;49.71
19553;BME280;9420;50.876;7.012;2023-02-28T07:42:19;102556.28;;;7.31;49.04
19553;BME280;9420;50.876;7.012;2023-02-28T07:44:47;102546.91;;;7.48;49.05
19553;BME280;9420;50.876;7.012;2023-02-28T07:47:14;102557.03;;;7.19;48.69
19553;BME280;9420;50.876;7.012;2023-02-28T07:49:41;102551.22;;;7.43;48.07
19553;BME280;9420;50.876;7.012;2023-02-28T07:52:09;102550.56;;;7.61;47.75
19553;BME280;9420;50.876;7.012;2023-02-28T07:54:36;102554.91;;;7.59;47.04
19553;BME280;9420;50.876;7.012;2023-02-28T07:57:03;102554.25;;;7.75;47.00
19553;BME280;9420;50.876;7.012;2023-02-28T07:59:30;102550.06;;;7.93;46.59
19553;BME280;9420;50.876;7.012;2023-02-28T08:01:57;102564.84;;;7.87;46.72
19553;BME280;9420;50.876;7.012;2023-02-28T08:04:25;102553.59;;;7.98;46.24
19553;BME280;9420;50.876;7.012;2023-02-28T08:06:52;102558.63;;;7.77;45.97
19553;BME280;9420;50.876;7.012;2023-02-28T08:09:21;102557.94;;;7.95;45.92
19553;BME280;9420;50.876;7.012;2023-02-28T08:11:48;102558.91;;;8.04;45.54
19553;BME280;9420;50.876;7.012;2023-02-28T08:14:15;102562.41;;;8.07;45.31
19553;BME280;9420;50.876;7.012;2023-02-28T08:16:42;102560.91;;;8.27;44.54
19553;BME280;9420;50.876;7.012;2023-02-28T08:19:09;102555.31;;;7.95;44.10
19553;BME280;9420;50.876;7.012;2023-02-28T08:21:36;102556.44;;;8.17;43.32
19553;BME280;9420;50.876;7.012;2023-02-28T08:24:04;102550.81;;;8.78;42.74
19553;BME280;9420;50.876;7.012;2023-02-28T08:26:33;102561.19;;;8.60;43.38
19553;BME280;9420;50.876;7.012;2023-02-28T08:29:00;102559.94;;;8.23;43.35
19553;BME280;9420;50.876;7.012;2023-02-28T08:31:27;102558.53;;;8.52;42.73
19553;BME280;9420;50.876;7.012;2023-02-28T08:33:54;102565.72;;;8.79;42.25
19553;BME280;9420;50.876;7.012;2023-02-28T08:36:25;102559.63;;;8.86;42.54
19553;BME280;9420;50.876;7.012;2023-02-28T08:38:54;102561.41;;;8.87;43.09
19553;BME280;9420;50.876;7.012;2023-02-28T08:41:21;102557.66;;;8.55;41.94
19553;BME280;9420;50.876;7.012;2023-02-28T08:43:49;102564.78;;;8.74;41.95
19553;BME280;9420;50.876;7.012;2023-02-28T08:46:16;102564.91;;;8.89;41.98
19553;BME280;9420;50.876;7.012;2023-02-28T08:48:44;102566.53;;;8.69;41.55
19553;BME280;9420;50.876;7.012;2023-02-28T08:51:14;102559.72;;;8.98;40.65
19553;BME280;9420;50.876;7.012;2023-02-28T08:53:45;102565.72;;;8.82;41.50
19553;BME280;9420;50.876;7.012;2023-02-28T08:56:14;102564.19;;;9.16;40.59
19553;BME280;9420;50.876;7.012;2023-02-28T08:58:45;102558.00;;;9.03;40.03
19553;BME280;9420;50.876;7.012;2023-02-28T09:01:16;102563.13;;;8.85;39.79
19553;BME280;9420;50.876;7.012;2023-02-28T09:03:44;102564.94;;;8.92;39.76
19553;BME280;9420;50.876;7.012;2023-02-28T09:06:13;102560.72;;;9.18;39.16
19553;BME280;9420;50.876;7.012;2023-02-28T09:08:41;102553.00;;;9.57;38.72
19553;BME280;9420;50.876;7.012;2023-02-28T09:11:09;102559.19;;;9.75;38.31
19553;BME280;9420;50.876;7.012;2023-02-28T09:13:38;102551.25;;;9.59;38.51
19553;BME280;9420;50.876;7.012;2023-02-28T09:16:08;102551.22;;;9.47;39.01
19553;BME280;9420;50.876;7.012;2023-02-28T09:18:39;102542.53;;;9.70;38.43
19553;BME280;9420;50.876;7.012;2023-02-28T09:21:09;102552.00;;;9.27;38.00
19553;BME280;9420;50.876;7.012;2023-02-28T09:23:39;102540.81;;;9.84;38.10
19553;BME280;9420;50.876;7.012;2023-02-28T09:26:11;102544.28;;;9.71;37.73
19553;BME280;9420;50.876;7.012;2023-02-28T09:28:39;102548.72;;;9.97;38.16
19553;BME280;9420;50.876;7.012;2023-02-28T09:31:12;102537.31;;;9.88;37.28
19553;BME280;9420;50.876;7.012;2023-02-28T09:33:42;102556.56;;;9.72;37.90
19553;BME280;9420;50.876;7.012;2023-02-28T09:36:09;102539.16;;;10.13;37.27
19553;BME280;9420;50.876;7.012;2023-02-28T09:38:36;102540.91;;;10.56;37.63
19553;BME280;9420;50.876;7.012;2023-02-28T09:41:14;102539.03;;;9.68;37.87
19553;BME280;9420;50.876;7.012;2023-02-28T09:43:46;102544.41;;;10.46;37.33
19553;BME280;9420;50.876;7.012;2023-02-28T09:46:32;102540.03;;;10.27;36.56
19553;BME280;9420;50.876;7.012;2023-02-28T09:49:07;102547.94;;;10.48;37.94
19553;BME280;9420;50.876;7.012;2023-02-28T09:51:50;102540.91;;;10.26;37.39
19553;BME280;9420;50.876;7.012;2023-02-28T09:54:20;102541.81;;;10.38;37.37
19553;BME280;9420;50.876;7.012;2023-02-28T09:56:53;102537.41;;;10.45;37.44
19553;BME280;9420;50.876;7.012;2023-02-28T09:59:52;102535.53;;;11.10;36.16
19553;BME280;9420;50.876;7.012;2023-02-28T10:02:47;102529.50;;;10.59;36.84
19553;BME280;9420;50.876;7.012;2023-02-28T10:05:20;102535.66;;;10.59;36.97
19553;BME280;9420;50.876;7.012;2023-02-28T10:08:01;102532.94;;;11.03;37.22
19553;BME280;9420;50.876;7.012;2023-02-28T10:10:39;102535.56;;;10.98;36.32
19553;BME280;9420;50.876;7.012;2023-02-28T10:13:27;102536.50;;;10.48;37.57
19553;BME280;9420;50.876;7.012;2023-02-28T10:16:05;102531.25;;;10.54;36.42
19553;BME280;9420;50.876;7.012;2023-02-28T10:18:43;102532.13;;;10.54;37.70
19553;BME280;9420;50.876;7.012;2023-02-28T10:21:21;102535.66;;;10.20;36.85
19553;BME280;9420;50.876;7.012;2023-02-28T10:24:05;102530.38;;;10.41;36.79
19553;BME280;9420;50.876;7.012;2023-02-28T10:26:37;102525.03;;;11.07;36.00
19553;BME280;9420;50.876;7.012;2023-02-28T10:29:08;102528.59;;;10.73;37.23
19553;BME280;9420;50.876;7.012;2023-02-28T10:31:35;102517.03;;;11.30;35.95
19553;BME280;9420;50.876;7.012;2023-02-28T10:34:02;102516.13;;;11.30;36.60
19553;BME280;9420;50.876;7.012;2023-02-28T10:36:33;102512.69;;;11.15;35.47
19553;BME280;9420;50.876;7.012;2023-02-28T10:39:39;102513.56;;;11.11;36.88
19553;BME280;9420;50.876;7.012;2023-02-28T10:42:23;102512.34;;;11.91;36.25
19553;BME280;9420;50.876;7.012;2023-02-28T10:45:12;102508.97;;;11.68;35.91
19553;BME280;9420;50.876;7.012;2023-02-28T10:47:53;102507.00;;;12.00;36.19
19553;BME280;9420;50.876;7.012;2023-02-28T10:50:42;102508.59;;;12.22;35.38
19553;BME280;9420;50.876;7.012;2023-02-28T10:53:30;102501.50;;;12.29;36.30
19553;BME280;9420;50.876;7.012;2023-02-28T10:56:00;102490.50;;;12.75;34.68
19553;BME280;9420;50.876;7.012;2023-02-28T10:58:30;102485.88;;;12.93;33.65
19553;BME280;9420;50.876;7.012;2023-02-28T11:00:59;102489.97;;;12.36;34.80
19553;BME280;9420;50.876;7.012;2023-02-28T11:03:32;102488.59;;;11.91;35.16
19553;BME280;9420;50.876;7.012;2023-02-28T11:06:06;102484.03;;;12.07;35.28
19553;BME280;9420;50.876;7.012;2023-02-28T11:08:49;102491.06;;;12.09;35.01
19553;BME280;9420;50.876;7.012;2023-02-28T11:11:18;102491.22;;;11.91;34.57
19553;BME280;9420;50.876;7.012;2023-02-28T11:13:50;102481.03;;;12.49;34.10
19553;BME280;9420;50.876;7.012;2023-02-28T11:16:18;102489.00;;;12.44;33.51
19553;BME280;9420;50.876;7.012;2023-02-28T11:18:50;102479.69;;;12.94;33.38
19553;BME280;9420;50.876;7.012;2023-02-28T11:21:24;102462.34;;;13.44;32.25
19553;BME280;9420;50.876;7.012;2023-02-28T11:24:00;102469.88;;;13.73;33.03
19553;BME280;9420;50.876;7.012;2023-02-28T11:26:42;102469.50;;;13.36;32.41
19553;BME280;9420;50.876;7.012;2023-02-28T11:29:18;102463.94;;;14.12;32.87
19553;BME280;9420;50.876;7.012;2023-02-28T11:32:13;102474.53;;;14.12;31.74
19553;BME280;9420;50.876;7.012;2023-02-28T11:34:44;102472.31;;;14.87;31.67
19553;BME280;9420;50.876;7.012;2023-02-28T11:37:15;102461.44;;;15.82;30.33
19553;BME280;9420;50.876;7.012;2023-02-28T11:39:45;102447.56;;;16.75;29.86
19553;BME280;9420;50.876;7.012;2023-02-28T11:42:35;102442.22;;;17.92;29.06
19553;BME280;9420;50.876;7.012;2023-02-28T11:45:21;102449.88;;;18.79;27.70
19553;BME280;9420;50.876;7.012;2023-02-28T11:48:01;102440.69;;;18.37;27.77
19553;BME280;9420;50.876;7.012;2023-02-28T11:50:59;102445.28;;;19.75;26.53
19553;BME280;9420;50.876;7.012;2023-02-28T11:53:50;102444.41;;;20.18;25.90
19553;BME280;9420;50.876;7.012;2023-02-28T11:56:30;102440.78;;;20.19;24.97
19553;BME280;9420;50.876;7.012;2023-02-28T11:59:30;102438.53;;;19.44;26.46
19553;BME280;9420;50.876;7.012;2023-02-28T12:02:23;102446.66;;;19.64;25.34
19553;BME280;9420;50.876;7.012;2023-02-28T12:05:05;102450.75;;;19.51;25.19
19553;BME280;9420;50.876;7.012;2023-02-28T12:07:51;102432.25;;;17.71;25.61
19553;BME280;9420;50.876;7.012;2023-02-28T12:10:24;102432.53;;;20.45;25.22
19553;BME280;9420;50.876;7.012;2023-02-28T12:13:12;102429.19;;;20.40;24.81
19553;BME280;9420;50.876;7.012;2023-02-28T12:16:44;102421.50;;;21.30;23.94
19553;BME280;9420;50.876;7.012;2023-02-28T12:19:21;102419.38;;;22.96;22.83
19553;BME280;9420;50.876;7.012;2023-02-28T12:25:30;102410.66;;;23.70;21.94
19553;BME280;9420;50.876;7.012;2023-02-28T12:28:10;102409.88;;;23.52;21.75
19553;BME280;9420;50.876;7.012;2023-02-28T12:30:49;102403.22;;;24.20;21.61
19553;BME280;9420;50.876;7.012;2023-02-28T12:33:26;102409.94;;;23.82;21.39
19553;BME280;9420;50.876;7.012;2023-02-28T12:36:00;102405.19;;;23.72;21.57
19553;BME280;9420;50.876;7.012;2023-02-28T12:38:38;102410.34;;;22.97;21.29
19553;BME280;9420;50.876;7.012;2023-02-28T12:41:14;102397.09;;;25.04;20.48
19553;BME280;9420;50.876;7.012;2023-02-28T12:43:51;102395.56;;;24.42;21.01
19553;BME280;9420;50.876;7.012;2023-02-28T12:46:29;102404.31;;;23.87;21.59
19553;BME280;9420;50.876;7.012;2023-02-28T12:49:00;102394.06;;;23.78;21.12
19553;BME280;9420;50.876;7.012;2023-02-28T12:51:32;102381.81;;;24.33;20.50
19553;BME280;9420;50.876;7.012;2023-02-28T12:54:12;102376.66;;;25.14;20.47
19553;BME280;9420;50.876;7.012;2023-02-28T12:56:48;102374.91;;;25.28;20.90
19553;BME280;9420;50.876;7.012;2023-02-28T12:59:29;102374.34;;;24.66;20.02
19553;BME280;9420;50.876;7.012;2023-02-28T13:08:59;102359.47;;;26.36;19.75
19553;BME280;9420;50.876;7.012;2023-02-28T13:11:29;102355.13;;;26.59;19.52
19553;BME280;9420;50.876;7.012;2023-02-28T13:14:01;102354.28;;;26.84;19.05
19553;BME280;9420;50.876;7.012;2023-02-28T13:16:58;102350.09;;;26.02;20.30
19553;BME280;9420;50.876;7.012;2023-02-28T13:19:28;102352.53;;;25.54;20.37
19553;BME280;9420;50.876;7.012;2023-02-28T13:21:58;102342.19;;;26.51;19.34
19553;BME280;9420;50.876;7.012;2023-02-28T13:24:49;102357.50;;;26.38;19.69
19553;BME280;9420;50.876;7.012;2023-02-28T13:27:37;102346.72;;;26.38;19.11
19553;BME280;9420;50.876;7.012;2023-02-28T13:31:00;102352.66;;;26.04;19.30
19553;BME280;9420;50.876;7.012;2023-02-28T13:33:32;102349.06;;;27.06;18.38
19553;BME280;9420;50.876;7.012;2023-02-28T13:36:10;102352.31;;;27.47;19.46
19553;BME280;9420;50.876;7.012;2023-02-28T13:38:41;102351.09;;;27.98;18.30
19553;BME280;9420;50.876;7.012;2023-02-28T13:41:44;102340.13;;;28.46;18.42
19553;BME280;9420;50.876;7.012;2023-02-28T13:44:15;102345.63;;;26.53;18.78
19553;BME280;9420;50.876;7.012;2023-02-28T13:47:29;102340.72;;;26.08;19.38
19553;BME280;9420;50.876;7.012;2023-02-28T13:50:21;102338.78;;;25.71;18.90
19553;BME280;9420;50.876;7.012;2023-02-28T13:53:27;102329.00;;;27.21;19.06
19553;BME280;9420;50.876;7.012;2023-02-28T13:56:09;102332.13;;;27.15;18.47